Latest Weather Observations for Clermont Airport

IDQ60801

Issued at 8:52 pm EST Saturday 23 February 2019 (issued every 10 minutes, with the page automatically refreshed every 10 minutes)

About weather observations | Map of weather stations | Latest weather observations for QLD | Other Formats
Station Details ID: 035124 Name: CLERMONT AIRPORT Lat: -22.78 Lon: 147.62 Height: 270.27 m
Data from the previous 72 hours. | See also: Recent months at Clermont Airport
Date/Time
EST
Temp
°C
App
Temp
°C
Dew
Point
°C
Rel
Hum
%
Delta-T
°C
Wind Press
QNH
hPa
Press
MSL
hPa
Rain since
9am
mm
Dir  Spd
km/h
Gust
km/h
Spd
kts
Gust
kts
23/08:30pm 25.8 27.1 19.2 67 4.3 N 11 17 6 9 1013.3 1011.5 0.0
23/08:00pm 26.3 25.7 18.4 61 5.1 N 19 26 10 14 1013.0 1011.2 0.0
23/07:30pm 26.8 26.5 19.2 63 4.9 NNE 19 26 10 14 1012.4 1010.6 0.0
23/07:00pm 27.1 27.1 19.7 64 4.9 NNE 19 28 10 15 1012.1 1010.3 0.0
23/06:30pm 29.6 29.4 16.8 46 8.1 NE 13 20 7 11 1011.4 1009.6 0.0
23/06:00pm 30.5 30.0 16.9 44 8.7 NE 15 24 8 13 1011.1 1009.3 0.0
23/05:30pm 31.3 31.3 17.2 42 9.0 NE 13 20 7 11 1010.6 1008.8 0.0
23/05:00pm 30.9 32.0 17.9 45 8.4 NE 9 17 5 9 1010.7 1008.9 0.0
23/04:30pm 29.5 30.4 18.3 51 7.3 ENE 11 20 6 11 1010.5 1008.7 0.0
23/04:00pm 29.9 28.8 17.4 47 8.0 E 19 32 10 17 1010.5 1008.7 0.0
23/03:30pm 33.6 33.0 14.6 31 11.8 SE 11 22 6 12 1010.3 1008.5 0.0
23/03:00pm 33.7 33.7 14.2 30 12.1 ESE 7 13 4 7 1010.4 1008.6 0.0
23/02:30pm 33.9 34.5 15.8 33 11.5 ENE 7 15 4 8 1010.5 1008.7 0.0
23/02:00pm 33.9 34.8 17.6 38 10.6 E 9 19 5 10 1011.0 1009.2 0.0
23/01:30pm 32.5 33.4 17.5 40 9.7 N 9 20 5 11 1011.8 1010.0 0.0
23/01:00pm 32.1 33.5 18.7 45 8.8 NNE 9 15 5 8 1012.2 1010.4 0.0
23/12:30pm 31.7 33.6 19.0 47 8.4 ENE 7 15 4 8 1012.5 1010.7 0.0
23/12:00pm 30.8 31.9 18.8 48 7.9 N 11 17 6 9 1012.8 1011.0 0.0
23/11:30am 29.5 30.2 18.9 53 6.9 N 13 20 7 11 1013.3 1011.5 0.0
23/11:00am 30.9 32.7 19.6 51 7.5 N 9 17 5 9 1013.7 1012.0 0.0
23/10:30am 29.5 30.5 19.5 55 6.6 NE 13 22 7 12 1014.2 1012.4 0.0
23/10:00am 28.4 31.1 20.7 63 5.1 N 7 17 4 9 1014.2 1012.4 0.0
23/09:30am 27.9 30.4 20.2 63 5.1 NNE 7 13 4 7 1014.4 1012.6 0.0
23/09:00am 26.8 28.4 19.9 66 4.5 NNE 11 20 6 11 1013.9 1012.2 2.0
23/08:30am 25.7 28.7 19.3 67 4.2 ESE 2 6 1 3 1013.8 1012.1 2.0
23/08:00am 24.6 27.6 19.2 72 3.5 ENE 2 6 1 3 1013.5 1011.8 2.0
23/07:30am 23.6 26.5 19.1 76 2.9 E 2 4 1 2 1013.4 1011.6 2.0
23/07:00am 22.0 24.8 18.8 82 2.0 WSW 2 4 1 2 1013.1 1011.3 2.0
23/06:30am 20.8 23.9 18.7 88 1.3 CALM 0 0 0 0 1012.8 1011.0 2.0
23/06:00am 20.6 23.2 18.4 87 1.4 SW 2 4 1 2 1012.0 1010.2 2.0
23/05:30am 20.9 23.5 18.3 85 1.6 WSW 2 6 1 3 1011.8 1010.0 2.0
23/05:00am 21.2 23.0 18.4 84 1.8 SSE 6 7 3 4 1011.4 1009.6 2.0
23/04:30am 20.8 23.3 18.2 85 1.6 ESE 2 6 1 3 1011.1 1009.3 2.0
23/04:00am 20.6 22.8 18.4 87 1.4 ESE 4 6 2 3 1010.6 1008.8 2.0
23/03:30am 21.0 24.1 18.6 86 1.5 CALM 0 2 0 1 1010.5 1008.7 2.0
23/03:00am 21.6 24.7 18.6 83 1.9 CALM 0 4 0 2 1010.4 1008.6 2.0
23/02:30am 21.5 24.1 18.5 83 1.9 WSW 2 4 1 2 1010.3 1008.5 2.0
23/02:00am 21.9 24.2 18.5 81 2.2 WNW 4 6 2 3 1010.3 1008.5 2.0
23/01:30am 22.2 25.2 18.4 79 2.4 CALM 0 7 0 4 1010.8 1009.0 2.0
23/01:00am 22.4 24.2 18.4 78 2.5 N 6 7 3 4 1011.0 1009.2 2.0
23/12:30am 22.6 24.5 18.6 78 2.5 NNE 6 9 3 5 1011.5 1009.7 2.0
23/12:00am 22.6 23.8 18.2 76 2.8 NNE 9 11 5 6 1011.9 1010.1 2.0
 
Date/Time
EST
Temp
°C
App
Temp
°C
Dew
Point
°C
Rel
Hum
%
Delta-T
°C
Wind Press
QNH
hPa
Press
MSL
hPa
Rain since
9am
mm
Dir  Spd
km/h
Gust
km/h
Spd
kts
Gust
kts
22/11:30pm 22.9 24.4 18.0 74 3.1 N 7 11 4 6 1011.6 1009.8 2.0
22/11:00pm 23.4 24.2 17.4 69 3.8 NW 9 15 5 8 1011.4 1009.6 2.0
22/10:30pm 23.1 23.3 18.6 76 2.9 NNW 15 20 8 11 1010.6 1008.8 2.0
22/10:00pm 23.6 24.2 18.7 74 3.1 N 13 20 7 11 1010.1 1008.3 1.8
22/09:30pm 24.4 27.1 20.3 78 2.7 NNW 6 11 3 6 1009.6 1007.8 1.8
22/09:00pm 24.3 26.3 20.8 81 2.3 N 11 15 6 8 1009.6 1007.8 1.8
22/08:30pm 24.0 26.9 20.7 82 2.2 ENE 6 13 3 7 1010.4 1008.6 1.6
22/08:00pm 28.6 26.6 17.5 51 7.1 SW 24 43 13 23 1009.7 1007.9 0.0
22/07:30pm 31.0 31.8 15.8 40 9.5 NNW 6 9 3 5 1008.0 1006.2 0.0
22/07:00pm 31.4 30.7 15.4 38 10.0 NNW 13 17 7 9 1007.4 1005.6 0.0
22/06:30pm 32.0 31.6 15.1 36 10.5 NNW 11 19 6 10 1007.1 1005.3 0.0
22/06:00pm 32.3 31.9 15.3 35 10.7 NNW 11 15 6 8 1006.6 1004.7 0.0
22/05:30pm 32.7 31.9 15.2 34 11.0 NNW 13 19 7 10 1006.5 1004.6 0.0
22/05:00pm 36.0 36.2 12.9 25 14.2 SE 4 9 2 5 1006.5 1004.6 0.0
22/04:30pm 36.6 35.6 14.6 27 13.8 SE 13 22 7 12 1006.1 1004.3 0.0
22/04:00pm 36.3 34.8 14.3 27 13.8 SSE 15 24 8 13 1006.0 1004.2 0.0
22/03:30pm 36.2 35.8 14.2 26 13.7 ESE 9 20 5 11 1006.4 1004.5 0.0
22/03:00pm 36.5 36.2 13.3 25 14.4 ENE 7 13 4 7 1006.7 1004.8 0.0
22/02:30pm 35.3 35.4 15.6 31 12.5 E 9 20 5 11 1007.3 1005.5 0.0
22/02:00pm 35.5 36.7 16.8 33 12.1 SE 6 20 3 11 1007.6 1005.8 0.0
22/01:30pm 35.1 35.5 17.3 34 11.6 ESE 11 17 6 9 1007.8 1006.0 0.0
22/01:00pm 34.8 34.9 17.5 35 11.3 NE 13 22 7 12 1008.2 1006.4 0.0
22/12:30pm 34.0 35.0 17.7 38 10.6 E 9 20 5 11 1008.6 1006.8 0.0
22/12:00pm 33.7 34.7 18.6 40 10.0 E 11 20 6 11 1008.9 1007.1 0.0
22/11:30am 33.1 34.6 18.8 42 9.4 ENE 9 20 5 11 1009.2 1007.4 0.0
22/11:00am 32.3 34.3 19.2 46 8.7 ENE 7 15 4 8 1009.3 1007.5 0.0
22/10:30am 31.9 33.3 19.5 47 8.2 NE 11 22 6 12 1009.6 1007.8 0.0
22/10:00am 30.8 32.1 19.2 50 7.6 ENE 11 17 6 9 1009.8 1008.0 0.0
22/09:30am 30.3 31.2 18.4 49 7.7 ENE 11 19 6 10 1009.9 1008.1 0.0
22/09:00am 29.4 30.0 18.5 52 7.1 ENE 13 22 7 12 1009.9 1008.1 -
22/08:30am 28.9 30.0 18.9 54 6.5 NE 11 17 6 9 1009.7 1007.9 -
22/08:00am 28.2 29.6 18.6 56 6.2 NE 9 15 5 8 1009.4 1007.6 -
22/07:30am 27.1 28.4 19.4 62 5.0 NE 11 20 6 11 1009.1 1007.3 -
22/07:00am 26.5 28.9 19.6 66 4.5 E 6 13 3 7 1008.9 1007.1 -
22/06:30am 25.5 27.9 19.6 70 3.8 SE 6 9 3 5 1008.5 1006.7 -
22/06:00am 25.0 27.7 19.4 71 3.6 NNE 4 6 2 3 1007.8 1006.0 -
22/05:30am 25.6 28.5 19.9 70 3.7 ENE 4 9 2 5 1007.5 1005.7 -
22/05:00am 25.8 28.4 20.4 72 3.6 NE 7 17 4 9 1007.2 1005.4 -
22/04:30am 26.0 28.2 21.2 75 3.2 ENE 11 20 6 11 1007.0 1005.2 -
22/04:00am 26.1 28.6 21.1 74 3.3 ENE 9 17 5 9 1006.6 1004.7 -
22/03:30am 26.3 29.1 20.8 71 3.7 ENE 7 11 4 6 1006.5 1004.6 -
22/03:00am 26.2 27.9 18.6 63 4.9 ESE 7 9 4 5 1006.4 1004.5 0.0
22/02:30am 25.6 23.6 8.6 34 9.3 S 9 13 5 7 1006.1 1004.3 -
22/02:00am 25.6 23.6 6.3 29 10.2 S 6 9 3 5 1005.8 1004.0 -
22/01:30am 27.8 24.8 4.2 22 12.1 SSW 9 13 5 7 1005.9 1004.1 -
22/01:00am 29.1 26.3 5.2 22 12.6 S 9 20 5 11 1006.0 1004.2 -
22/12:30am 26.9 26.9 11.0 37 9.1 SW 2 7 1 4 1006.4 1004.5 -
22/12:00am 28.1 27.6 12.0 36 9.5 NNW 6 7 3 4 1006.2 1004.4 -
 
Date/Time
EST
Temp
°C
App
Temp
°C
Dew
Point
°C
Rel
Hum
%
Delta-T
°C
Wind Press
QNH
hPa
Press
MSL
hPa
Rain since
9am
mm
Dir  Spd
km/h
Gust
km/h
Spd
kts
Gust
kts
21/11:30pm 30.7 29.8 12.6 33 10.8 WNW 9 13 5 7 1006.5 1004.6 -
21/11:00pm 32.2 33.5 18.4 44 9.0 ENE 9 20 5 11 1006.5 1004.6 -
21/10:30pm 27.3 27.0 11.3 37 9.2 NE 4 7 2 4 1005.6 1003.8 -
21/10:00pm 27.1 26.4 9.9 34 9.7 N 4 6 2 3 1005.6 1003.8 -
21/09:30pm 26.9 27.5 11.8 39 8.8 CALM 0 0 0 0 1005.4 1003.6 -
21/09:00pm 27.0 27.0 12.3 40 8.6 SW 4 6 2 3 1005.2 1003.4 0.0
21/08:30pm 27.6 27.0 11.6 37 9.3 SW 6 6 3 3 1004.9 1003.1 -
21/08:00pm 29.6 29.2 11.2 32 10.7 SW 4 6 2 3 1004.8 1003.0 -
21/07:30pm 32.4 31.7 9.9 25 13.0 SSW 4 4 2 2 1004.5 1002.7 -
21/07:00pm 34.9 33.8 8.6 20 15.1 SSW 4 4 2 2 1004.1 1002.3 -
21/06:30pm 36.5 34.8 8.4 18 16.1 SSW 7 9 4 5 1003.9 1002.1 -
21/06:00pm 37.6 35.7 7.5 16 17.2 SSW 7 11 4 6 1003.7 1001.9 -
21/05:30pm 37.9 35.7 7.7 16 17.3 SW 9 17 5 9 1003.6 1001.8 -
21/05:00pm 38.3 35.9 7.1 15 17.8 S 9 19 5 10 1003.6 1001.8 -
21/04:30pm 38.0 35.0 7.8 16 17.3 S 13 26 7 14 1003.5 1001.6 -
21/04:00pm 38.0 34.8 6.9 15 17.6 S 13 19 7 10 1003.7 1001.9 -
21/03:30pm 38.0 35.2 8.7 17 17.0 SW 13 28 7 15 1003.8 1002.0 -
21/03:00pm 37.6 34.8 10.0 19 16.4 SW 15 26 8 14 1004.1 1002.3 -
21/02:30pm 37.6 37.8 14.2 25 14.7 WNW 6 19 3 10 1004.4 1002.6 -
21/02:00pm 36.6 35.6 13.4 25 14.4 SSW 11 19 6 10 1005.0 1003.2 -
21/01:30pm 36.2 36.4 14.8 28 13.5 ESE 7 17 4 9 1005.6 1003.8 -
21/01:00pm 36.3 36.9 15.4 28 13.3 WSW 6 11 3 6 1006.1 1004.3 -
21/12:30pm 35.3 34.5 15.1 30 12.7 SSE 13 22 7 12 1006.8 1004.9 -
21/12:00pm 34.0 33.7 14.5 31 12.2 SE 9 22 5 12 1007.2 1005.4 0.0
21/11:30am 33.9 33.0 14.9 32 11.9 SE 13 24 7 13 1007.7 1005.9 0.0
21/11:00am 32.8 31.7 14.4 33 11.4 SE 13 22 7 12 1008.2 1006.4 0.0
21/10:30am 32.6 32.5 16.0 36 10.5 ESE 11 20 6 11 1008.3 1006.5 0.0
21/10:00am 31.6 32.8 18.2 44 8.7 SE 9 17 5 9 1008.3 1006.5 0.0
21/09:30am 30.6 31.9 19.3 51 7.4 ESE 11 20 6 11 1008.4 1006.6 0.0
21/09:00am 29.1 31.1 20.0 58 6.0 ESE 9 15 5 8 1008.4 1006.6 0.0
21/08:30am 27.9 29.4 19.7 61 5.4 SE 11 19 6 10 1008.3 1006.5 0.0
21/08:00am 27.2 29.1 19.8 64 4.9 SE 9 19 5 10 1008.1 1006.3 0.0
21/07:30am 26.6 28.4 20.4 69 4.1 SSE 11 17 6 9 1008.1 1006.3 0.0
21/07:00am 25.7 27.9 20.5 73 3.4 SSE 9 13 5 7 1007.6 1005.8 0.0
21/06:30am 25.0 27.4 20.9 78 2.7 SSE 9 11 5 6 1007.1 1005.3 0.0
21/06:00am 24.9 27.7 20.8 78 2.7 SSE 7 13 4 7 1006.6 1004.7 0.0
21/05:30am 25.1 27.9 20.8 77 2.8 SSE 7 11 4 6 1006.4 1004.5 0.0
21/05:00am 25.4 28.1 20.6 75 3.2 SE 7 11 4 6 1005.7 1003.9 0.0
21/04:30am 25.7 27.9 20.3 72 3.6 SE 9 15 5 8 1005.5 1003.7 0.0
21/04:00am 25.9 25.6 19.1 66 4.4 ESE 19 32 10 17 1005.1 1003.3 0.0
21/03:30am 26.7 26.2 16.9 55 6.2 S 15 22 8 12 1004.8 1003.0 0.0
21/03:00am 23.5 24.1 15.3 60 5.0 SW 6 7 3 4 1004.4 1002.6 0.0
21/02:30am 24.3 25.1 15.8 59 5.2 SW 6 7 3 4 1004.6 1002.8 0.0
21/02:00am 24.3 25.8 15.8 59 5.2 SW 2 6 1 3 1004.6 1002.8 0.0
21/01:30am 26.0 27.9 15.7 53 6.3 CALM 0 0 0 0 1004.7 1002.9 0.0
21/01:00am 26.5 27.4 15.2 49 6.9 NW 4 7 2 4 1004.9 1003.1 0.0
21/12:30am 28.1 29.9 15.4 46 7.8 CALM 0 6 0 3 1005.2 1003.4 0.0
21/12:00am 29.1 28.7 15.2 42 8.6 NW 11 15 6 8 1005.2 1003.4 0.0
 
Date/Time
EST
Temp
°C
App
Temp
°C
Dew
Point
°C
Rel
Hum
%
Delta-T
°C
Wind Press
QNH
hPa
Press
MSL
hPa
Rain since
9am
mm
Dir  Spd
km/h
Gust
km/h
Spd
kts
Gust
kts
20/11:30pm 28.9 29.0 15.4 44 8.4 NNW 9 13 5 7 1005.5 1003.7 0.0
20/11:00pm 31.3 30.9 15.3 38 10.0 N 11 19 6 10 1005.7 1003.9 0.0
20/10:30pm 31.5 31.8 15.0 36 10.3 NE 7 13 4 7 1005.9 1004.1 0.0
20/10:00pm 31.5 30.9 14.6 36 10.5 N 11 17 6 9 1005.6 1003.8 0.0
20/09:30pm 32.3 30.9 13.5 32 11.5 NNE 13 19 7 10 1005.4 1003.6 0.0
20/09:00pm 34.9 32.5 8.6 20 15.1 ENE 11 26 6 14 1004.8 1003.0 0.0

Other formats

Comma delimited format used in spreadsheet applications
http://www.bom.gov.au/fwo/IDQ60801/IDQ60801.94395.axf

JavaScript Object Notation format (JSON) in row-major order
http://www.bom.gov.au/fwo/IDQ60801/IDQ60801.94395.json

Data quality

Most of these data are generated automatically and are frequently updated. Quality checks on data are not normally performed. It is possible for incorrect values to appear. Refer to information at About Latest Weather Observations and please check the disclaimer before using these data.